sensor_id;sensor_type;location;lat;lon;timestamp;temperature;humidity
53752;DHT22;41095;53.090;6.692;2023-03-17T00:00:42;8.40;99.90
53752;DHT22;41095;53.090;6.692;2023-03-17T00:05:41;8.40;99.90
53752;DHT22;41095;53.090;6.692;2023-03-17T00:08:18;8.40;99.90
53752;DHT22;41095;53.090;6.692;2023-03-17T00:10:44;8.40;99.90
53752;DHT22;41095;53.090;6.692;2023-03-17T00:13:11;8.50;99.90
53752;DHT22;41095;53.090;6.692;2023-03-17T00:15:37;8.50;99.90
53752;DHT22;41095;53.090;6.692;2023-03-17T00:18:03;8.40;99.90
53752;DHT22;41095;53.090;6.692;2023-03-17T00:20:31;8.50;99.90
53752;DHT22;41095;53.090;6.692;2023-03-17T00:23:01;8.60;99.90
53752;DHT22;41095;53.090;6.692;2023-03-17T00:25:33;8.60;99.90
53752;DHT22;41095;53.090;6.692;2023-03-17T00:28:00;8.50;99.90
53752;DHT22;41095;53.090;6.692;2023-03-17T00:30:27;8.60;99.90
53752;DHT22;41095;53.090;6.692;2023-03-17T00:32:57;8.60;99.90
53752;DHT22;41095;53.090;6.692;2023-03-17T00:35:25;8.60;99.90
53752;DHT22;41095;53.090;6.692;2023-03-17T00:37:53;8.60;99.90
53752;DHT22;41095;53.090;6.692;2023-03-17T00:40:22;8.50;99.90
53752;DHT22;41095;53.090;6.692;2023-03-17T00:42:50;8.60;99.90
53752;DHT22;41095;53.090;6.692;2023-03-17T00:45:17;8.60;99.90
53752;DHT22;41095;53.090;6.692;2023-03-17T00:47:43;8.60;99.90
53752;DHT22;41095;53.090;6.692;2023-03-17T00:50:13;8.60;99.90
53752;DHT22;41095;53.090;6.692;2023-03-17T00:52:39;8.60;99.90
53752;DHT22;41095;53.090;6.692;2023-03-17T00:55:06;8.60;99.90
53752;DHT22;41095;53.090;6.692;2023-03-17T00:57:34;8.60;99.90
53752;DHT22;41095;53.090;6.692;2023-03-17T01:00:00;9.10;99.90
53752;DHT22;41095;53.090;6.692;2023-03-17T01:02:26;8.60;99.90
53752;DHT22;41095;53.090;6.692;2023-03-17T01:04:51;8.60;99.90
53752;DHT22;41095;53.090;6.692;2023-03-17T01:07:18;8.50;99.90
53752;DHT22;41095;53.090;6.692;2023-03-17T01:09:44;8.60;99.90
53752;DHT22;41095;53.090;6.692;2023-03-17T01:12:11;8.60;99.90
53752;DHT22;41095;53.090;6.692;2023-03-17T01:14:38;8.60;99.90
53752;DHT22;41095;53.090;6.692;2023-03-17T01:17:13;8.60;99.90
53752;DHT22;41095;53.090;6.692;2023-03-17T01:19:39;8.70;99.90
53752;DHT22;41095;53.090;6.692;2023-03-17T01:22:05;8.60;99.90
53752;DHT22;41095;53.090;6.692;2023-03-17T01:24:31;8.70;99.90
53752;DHT22;41095;53.090;6.692;2023-03-17T01:26:57;8.60;99.90
53752;DHT22;41095;53.090;6.692;2023-03-17T01:29:23;8.70;99.90
53752;DHT22;41095;53.090;6.692;2023-03-17T01:31:49;8.70;99.90
53752;DHT22;41095;53.090;6.692;2023-03-17T01:34:14;8.60;99.90
53752;DHT22;41095;53.090;6.692;2023-03-17T01:36:41;8.60;99.90
53752;DHT22;41095;53.090;6.692;2023-03-17T01:39:07;8.70;99.90
53752;DHT22;41095;53.090;6.692;2023-03-17T01:41:34;8.70;99.90
53752;DHT22;41095;53.090;6.692;2023-03-17T01:43:59;8.60;99.90
53752;DHT22;41095;53.090;6.692;2023-03-17T01:46:29;8.60;99.90
53752;DHT22;41095;53.090;6.692;2023-03-17T01:52:00;8.70;99.90
53752;DHT22;41095;53.090;6.692;2023-03-17T01:57:12;8.60;99.90
53752;DHT22;41095;53.090;6.692;2023-03-17T01:59:51;8.60;99.90
53752;DHT22;41095;53.090;6.692;2023-03-17T02:02:27;8.60;99.90
53752;DHT22;41095;53.090;6.692;2023-03-17T02:04:56;8.60;99.90
53752;DHT22;41095;53.090;6.692;2023-03-17T02:07:23;8.60;99.90
53752;DHT22;41095;53.090;6.692;2023-03-17T02:09:51;8.60;99.90
53752;DHT22;41095;53.090;6.692;2023-03-17T02:12:18;8.60;99.90
53752;DHT22;41095;53.090;6.692;2023-03-17T02:14:45;8.60;99.90
53752;DHT22;41095;53.090;6.692;2023-03-17T02:17:11;8.50;99.90
53752;DHT22;41095;53.090;6.692;2023-03-17T02:19:37;8.50;99.90
53752;DHT22;41095;53.090;6.692;2023-03-17T02:22:03;8.50;99.90
53752;DHT22;41095;53.090;6.692;2023-03-17T02:27:27;8.50;99.90
53752;DHT22;41095;53.090;6.692;2023-03-17T02:29:56;8.50;99.90
53752;DHT22;41095;53.090;6.692;2023-03-17T02:32:22;8.50;99.90
53752;DHT22;41095;53.090;6.692;2023-03-17T02:34:48;8.50;99.90
53752;DHT22;41095;53.090;6.692;2023-03-17T02:37:16;8.40;99.90
53752;DHT22;41095;53.090;6.692;2023-03-17T02:39:42;8.40;99.90
53752;DHT22;41095;53.090;6.692;2023-03-17T02:42:08;8.40;99.90
53752;DHT22;41095;53.090;6.692;2023-03-17T02:44:34;8.40;99.90
53752;DHT22;41095;53.090;6.692;2023-03-17T02:47:00;8.30;99.90
53752;DHT22;41095;53.090;6.692;2023-03-17T02:49:26;8.30;99.90
53752;DHT22;41095;53.090;6.692;2023-03-17T02:51:52;8.30;99.90
53752;DHT22;41095;53.090;6.692;2023-03-17T02:54:18;8.30;99.90
53752;DHT22;41095;53.090;6.692;2023-03-17T02:56:44;8.30;99.90
53752;DHT22;41095;53.090;6.692;2023-03-17T02:59:10;8.30;99.90
53752;DHT22;41095;53.090;6.692;2023-03-17T03:01:36;8.30;99.90
53752;DHT22;41095;53.090;6.692;2023-03-17T03:04:04;8.30;99.90
53752;DHT22;41095;53.090;6.692;2023-03-17T03:06:29;8.40;99.90
53752;DHT22;41095;53.090;6.692;2023-03-17T03:08:56;8.30;99.90
53752;DHT22;41095;53.090;6.692;2023-03-17T03:11:22;8.30;99.90
53752;DHT22;41095;53.090;6.692;2023-03-17T03:13:47;8.40;99.90
53752;DHT22;41095;53.090;6.692;2023-03-17T03:16:14;8.40;99.90
53752;DHT22;41095;53.090;6.692;2023-03-17T03:18:40;8.40;99.90
53752;DHT22;41095;53.090;6.692;2023-03-17T03:21:08;8.40;99.90
53752;DHT22;41095;53.090;6.692;2023-03-17T03:23:35;8.40;99.90
53752;DHT22;41095;53.090;6.692;2023-03-17T03:26:00;8.40;99.90
53752;DHT22;41095;53.090;6.692;2023-03-17T03:28:26;8.50;99.90
53752;DHT22;41095;53.090;6.692;2023-03-17T03:30:52;8.50;99.90
53752;DHT22;41095;53.090;6.692;2023-03-17T03:33:18;8.50;99.90
53752;DHT22;41095;53.090;6.692;2023-03-17T03:35:44;8.50;99.90
53752;DHT22;41095;53.090;6.692;2023-03-17T03:38:11;8.50;99.90
53752;DHT22;41095;53.090;6.692;2023-03-17T03:40:37;8.50;99.90
53752;DHT22;41095;53.090;6.692;2023-03-17T03:43:03;8.50;99.90
53752;DHT22;41095;53.090;6.692;2023-03-17T03:45:29;8.50;99.90
53752;DHT22;41095;53.090;6.692;2023-03-17T03:47:55;8.50;99.90
53752;DHT22;41095;53.090;6.692;2023-03-17T03:50:22;8.50;99.90
53752;DHT22;41095;53.090;6.692;2023-03-17T03:52:48;8.50;99.90
53752;DHT22;41095;53.090;6.692;2023-03-17T03:55:14;8.50;99.90
53752;DHT22;41095;53.090;6.692;2023-03-17T03:57:41;8.50;99.90
53752;DHT22;41095;53.090;6.692;2023-03-17T04:00:07;8.50;99.90
53752;DHT22;41095;53.090;6.692;2023-03-17T04:02:33;8.50;99.90
53752;DHT22;41095;53.090;6.692;2023-03-17T04:04:59;8.50;99.90
53752;DHT22;41095;53.090;6.692;2023-03-17T04:07:26;8.50;99.90
53752;DHT22;41095;53.090;6.692;2023-03-17T04:09:52;8.40;99.90
53752;DHT22;41095;53.090;6.692;2023-03-17T04:12:18;8.40;99.90
53752;DHT22;41095;53.090;6.692;2023-03-17T04:14:44;8.40;99.90
53752;DHT22;41095;53.090;6.692;2023-03-17T04:17:10;8.30;99.90
53752;DHT22;41095;53.090;6.692;2023-03-17T04:19:37;8.30;99.90
53752;DHT22;41095;53.090;6.692;2023-03-17T04:22:04;8.20;99.90
53752;DHT22;41095;53.090;6.692;2023-03-17T04:24:30;8.10;99.90
53752;DHT22;41095;53.090;6.692;2023-03-17T04:26:55;8.10;99.90
53752;DHT22;41095;53.090;6.692;2023-03-17T04:29:21;8.10;99.90
53752;DHT22;41095;53.090;6.692;2023-03-17T04:31:47;8.10;99.90
53752;DHT22;41095;53.090;6.692;2023-03-17T04:34:15;8.00;99.90
53752;DHT22;41095;53.090;6.692;2023-03-17T04:36:42;8.00;99.90
53752;DHT22;41095;53.090;6.692;2023-03-17T04:39:08;8.00;99.90
53752;DHT22;41095;53.090;6.692;2023-03-17T04:41:34;8.10;99.90
53752;DHT22;41095;53.090;6.692;2023-03-17T04:44:00;8.10;99.90
53752;DHT22;41095;53.090;6.692;2023-03-17T04:46:25;8.10;99.90
53752;DHT22;41095;53.090;6.692;2023-03-17T04:48:52;8.10;99.90
53752;DHT22;41095;53.090;6.692;2023-03-17T04:51:18;8.10;99.90
53752;DHT22;41095;53.090;6.692;2023-03-17T04:53:44;8.00;99.90
53752;DHT22;41095;53.090;6.692;2023-03-17T04:56:10;8.00;99.90
53752;DHT22;41095;53.090;6.692;2023-03-17T04:58:36;7.90;99.90
53752;DHT22;41095;53.090;6.692;2023-03-17T05:01:02;7.90;99.90
53752;DHT22;41095;53.090;6.692;2023-03-17T05:03:29;7.90;99.90
53752;DHT22;41095;53.090;6.692;2023-03-17T05:05:56;7.70;99.90
53752;DHT22;41095;53.090;6.692;2023-03-17T05:08:22;7.80;99.90
53752;DHT22;41095;53.090;6.692;2023-03-17T05:10:49;7.80;99.90
53752;DHT22;41095;53.090;6.692;2023-03-17T05:13:15;7.70;99.90
53752;DHT22;41095;53.090;6.692;2023-03-17T05:15:48;7.80;99.90
53752;DHT22;41095;53.090;6.692;2023-03-17T05:18:16;7.80;99.90
53752;DHT22;41095;53.090;6.692;2023-03-17T05:20:43;7.80;99.90
53752;DHT22;41095;53.090;6.692;2023-03-17T05:23:09;7.80;99.90
53752;DHT22;41095;53.090;6.692;2023-03-17T05:25:35;7.80;99.90
53752;DHT22;41095;53.090;6.692;2023-03-17T05:28:01;7.80;99.90
53752;DHT22;41095;53.090;6.692;2023-03-17T05:30:27;7.90;99.90
53752;DHT22;41095;53.090;6.692;2023-03-17T05:32:53;7.90;99.90
53752;DHT22;41095;53.090;6.692;2023-03-17T05:35:19;8.00;99.90
53752;DHT22;41095;53.090;6.692;2023-03-17T05:37:45;7.90;99.90
53752;DHT22;41095;53.090;6.692;2023-03-17T05:40:12;8.00;99.90
53752;DHT22;41095;53.090;6.692;2023-03-17T05:42:39;8.00;99.90
53752;DHT22;41095;53.090;6.692;2023-03-17T05:45:06;8.00;99.90
53752;DHT22;41095;53.090;6.692;2023-03-17T05:47:32;8.00;99.90
53752;DHT22;41095;53.090;6.692;2023-03-17T05:49:59;8.10;99.90
53752;DHT22;41095;53.090;6.692;2023-03-17T05:52:26;8.10;99.90
53752;DHT22;41095;53.090;6.692;2023-03-17T05:54:52;8.10;99.90
53752;DHT22;41095;53.090;6.692;2023-03-17T05:57:19;8.10;99.90
53752;DHT22;41095;53.090;6.692;2023-03-17T05:59:46;8.10;99.90
53752;DHT22;41095;53.090;6.692;2023-03-17T06:02:12;8.10;99.90
53752;DHT22;41095;53.090;6.692;2023-03-17T06:04:39;8.10;99.90
53752;DHT22;41095;53.090;6.692;2023-03-17T06:07:05;8.20;99.90
53752;DHT22;41095;53.090;6.692;2023-03-17T06:09:31;8.10;99.90
53752;DHT22;41095;53.090;6.692;2023-03-17T06:11:58;8.10;99.90
53752;DHT22;41095;53.090;6.692;2023-03-17T06:14:24;8.20;99.90
53752;DHT22;41095;53.090;6.692;2023-03-17T06:16:50;8.20;99.90
53752;DHT22;41095;53.090;6.692;2023-03-17T06:19:16;8.20;99.90
53752;DHT22;41095;53.090;6.692;2023-03-17T06:21:41;8.20;99.90
53752;DHT22;41095;53.090;6.692;2023-03-17T06:24:08;8.30;99.90
53752;DHT22;41095;53.090;6.692;2023-03-17T06:26:34;8.30;99.90
53752;DHT22;41095;53.090;6.692;2023-03-17T06:29:02;8.30;99.90
53752;DHT22;41095;53.090;6.692;2023-03-17T06:31:28;8.30;99.90
53752;DHT22;41095;53.090;6.692;2023-03-17T06:33:54;8.30;99.90
53752;DHT22;41095;53.090;6.692;2023-03-17T06:36:19;8.30;99.90
53752;DHT22;41095;53.090;6.692;2023-03-17T06:38:46;8.30;99.90
53752;DHT22;41095;53.090;6.692;2023-03-17T06:41:11;8.30;99.90
53752;DHT22;41095;53.090;6.692;2023-03-17T06:43:38;8.30;99.90
53752;DHT22;41095;53.090;6.692;2023-03-17T06:46:03;8.30;99.90
53752;DHT22;41095;53.090;6.692;2023-03-17T06:48:30;8.40;99.90
53752;DHT22;41095;53.090;6.692;2023-03-17T06:50:55;8.40;99.90
53752;DHT22;41095;53.090;6.692;2023-03-17T06:53:21;8.40;99.90
53752;DHT22;41095;53.090;6.692;2023-03-17T06:55:47;8.40;99.90
53752;DHT22;41095;53.090;6.692;2023-03-17T06:58:13;8.40;99.90
53752;DHT22;41095;53.090;6.692;2023-03-17T07:00:40;8.40;99.90
53752;DHT22;41095;53.090;6.692;2023-03-17T07:03:06;8.40;99.90
53752;DHT22;41095;53.090;6.692;2023-03-17T07:05:32;8.50;99.90
53752;DHT22;41095;53.090;6.692;2023-03-17T07:07:58;8.40;99.90
53752;DHT22;41095;53.090;6.692;2023-03-17T07:10:24;8.50;99.90
53752;DHT22;41095;53.090;6.692;2023-03-17T07:12:50;8.50;99.90
53752;DHT22;41095;53.090;6.692;2023-03-17T07:15:16;8.50;99.90
53752;DHT22;41095;53.090;6.692;2023-03-17T07:17:43;8.60;99.90
53752;DHT22;41095;53.090;6.692;2023-03-17T07:20:11;8.70;99.90
53752;DHT22;41095;53.090;6.692;2023-03-17T07:22:39;8.70;99.90
53752;DHT22;41095;53.090;6.692;2023-03-17T07:25:05;8.80;99.90
53752;DHT22;41095;53.090;6.692;2023-03-17T07:27:31;8.90;99.90
53752;DHT22;41095;53.090;6.692;2023-03-17T07:29:56;8.90;99.90
53752;DHT22;41095;53.090;6.692;2023-03-17T07:32:24;9.00;99.90
53752;DHT22;41095;53.090;6.692;2023-03-17T07:34:50;9.00;99.90
53752;DHT22;41095;53.090;6.692;2023-03-17T07:37:16;9.10;99.90
53752;DHT22;41095;53.090;6.692;2023-03-17T07:39:42;9.20;99.90
53752;DHT22;41095;53.090;6.692;2023-03-17T07:42:11;9.30;99.90
53752;DHT22;41095;53.090;6.692;2023-03-17T07:44:39;9.60;99.90
53752;DHT22;41095;53.090;6.692;2023-03-17T07:47:06;9.70;99.90
53752;DHT22;41095;53.090;6.692;2023-03-17T07:49:32;9.80;99.90
53752;DHT22;41095;53.090;6.692;2023-03-17T07:51:58;9.90;99.90
53752;DHT22;41095;53.090;6.692;2023-03-17T07:54:24;10.00;99.90
53752;DHT22;41095;53.090;6.692;2023-03-17T07:56:53;10.40;99.90
53752;DHT22;41095;53.090;6.692;2023-03-17T07:59:19;10.50;99.90
53752;DHT22;41095;53.090;6.692;2023-03-17T08:01:45;10.70;99.90
53752;DHT22;41095;53.090;6.692;2023-03-17T08:04:11;10.70;99.90
53752;DHT22;41095;53.090;6.692;2023-03-17T08:06:41;10.70;99.90
53752;DHT22;41095;53.090;6.692;2023-03-17T08:09:10;10.60;99.90
53752;DHT22;41095;53.090;6.692;2023-03-17T08:11:36;10.50;99.90
53752;DHT22;41095;53.090;6.692;2023-03-17T08:14:03;10.50;99.90
53752;DHT22;41095;53.090;6.692;2023-03-17T08:16:30;10.40;99.90
53752;DHT22;41095;53.090;6.692;2023-03-17T08:18:55;10.40;99.90
53752;DHT22;41095;53.090;6.692;2023-03-17T08:21:24;10.40;99.90
53752;DHT22;41095;53.090;6.692;2023-03-17T08:23:54;10.50;99.90
53752;DHT22;41095;53.090;6.692;2023-03-17T08:26:21;10.60;99.90
53752;DHT22;41095;53.090;6.692;2023-03-17T08:28:47;10.80;99.90
53752;DHT22;41095;53.090;6.692;2023-03-17T08:31:19;10.90;99.90
53752;DHT22;41095;53.090;6.692;2023-03-17T08:33:50;10.80;99.90
53752;DHT22;41095;53.090;6.692;2023-03-17T08:36:16;10.70;99.90
53752;DHT22;41095;53.090;6.692;2023-03-17T08:38:44;10.60;99.90
53752;DHT22;41095;53.090;6.692;2023-03-17T08:41:13;10.60;99.90
53752;DHT22;41095;53.090;6.692;2023-03-17T08:43:40;10.60;99.90
53752;DHT22;41095;53.090;6.692;2023-03-17T08:46:28;10.60;99.90
53752;DHT22;41095;53.090;6.692;2023-03-17T08:48:55;10.60;99.90
53752;DHT22;41095;53.090;6.692;2023-03-17T08:51:25;10.70;99.90
53752;DHT22;41095;53.090;6.692;2023-03-17T08:53:53;10.80;99.90
53752;DHT22;41095;53.090;6.692;2023-03-17T08:56:19;10.80;99.90
53752;DHT22;41095;53.090;6.692;2023-03-17T08:58:45;10.90;99.90
53752;DHT22;41095;53.090;6.692;2023-03-17T09:01:11;11.00;99.90
53752;DHT22;41095;53.090;6.692;2023-03-17T09:03:38;11.20;99.90
53752;DHT22;41095;53.090;6.692;2023-03-17T09:06:06;11.40;99.90
53752;DHT22;41095;53.090;6.692;2023-03-17T09:08:35;11.60;99.90
53752;DHT22;41095;53.090;6.692;2023-03-17T09:11:08;11.90;99.90
53752;DHT22;41095;53.090;6.692;2023-03-17T09:13:35;12.50;99.90
53752;DHT22;41095;53.090;6.692;2023-03-17T09:16:05;13.20;99.90
53752;DHT22;41095;53.090;6.692;2023-03-17T09:18:33;14.20;97.40
53752;DHT22;41095;53.090;6.692;2023-03-17T09:20:59;14.70;97.10
53752;DHT22;41095;53.090;6.692;2023-03-17T09:23:27;15.50;95.70
53752;DHT22;41095;53.090;6.692;2023-03-17T09:25:52;16.20;97.00
53752;DHT22;41095;53.090;6.692;2023-03-17T09:28:18;15.80;97.00
53752;DHT22;41095;53.090;6.692;2023-03-17T09:30:44;15.20;95.60
53752;DHT22;41095;53.090;6.692;2023-03-17T09:33:11;14.90;97.70
53752;DHT22;41095;53.090;6.692;2023-03-17T09:35:38;14.60;97.90
53752;DHT22;41095;53.090;6.692;2023-03-17T09:38:05;14.30;95.90
53752;DHT22;41095;53.090;6.692;2023-03-17T09:40:38;14.40;96.40
53752;DHT22;41095;53.090;6.692;2023-03-17T09:49:02;14.70;95.80
53752;DHT22;41095;53.090;6.692;2023-03-17T09:51:33;15.20;95.90
53752;DHT22;41095;53.090;6.692;2023-03-17T09:54:36;15.30;96.70
53752;DHT22;41095;53.090;6.692;2023-03-17T09:57:11;15.50;94.30
53752;DHT22;41095;53.090;6.692;2023-03-17T09:59:45;16.00;96.40
53752;DHT22;41095;53.090;6.692;2023-03-17T10:02:27;17.00;95.40
53752;DHT22;41095;53.090;6.692;2023-03-17T10:04:54;17.60;91.30
53752;DHT22;41095;53.090;6.692;2023-03-17T10:10:25;18.30;90.60
53752;DHT22;41095;53.090;6.692;2023-03-17T10:15:34;19.20;91.90
53752;DHT22;41095;53.090;6.692;2023-03-17T10:18:14;19.60;89.90
53752;DHT22;41095;53.090;6.692;2023-03-17T10:21:03;19.70;86.80
53752;DHT22;41095;53.090;6.692;2023-03-17T10:23:32;20.00;85.20
53752;DHT22;41095;53.090;6.692;2023-03-17T10:26:04;19.90;91.10
53752;DHT22;41095;53.090;6.692;2023-03-17T10:28:33;19.90;88.90
53752;DHT22;41095;53.090;6.692;2023-03-17T10:31:18;20.00;90.00
53752;DHT22;41095;53.090;6.692;2023-03-17T10:33:48;21.20;88.10
53752;DHT22;41095;53.090;6.692;2023-03-17T10:36:16;21.80;84.20
53752;DHT22;41095;53.090;6.692;2023-03-17T10:38:51;21.90;86.10
53752;DHT22;41095;53.090;6.692;2023-03-17T10:41:18;22.40;83.00
53752;DHT22;41095;53.090;6.692;2023-03-17T10:43:46;22.30;83.50
53752;DHT22;41095;53.090;6.692;2023-03-17T10:46:23;22.10;81.00
53752;DHT22;41095;53.090;6.692;2023-03-17T10:49:14;22.00;78.80
53752;DHT22;41095;53.090;6.692;2023-03-17T10:51:44;22.00;84.90
53752;DHT22;41095;53.090;6.692;2023-03-17T10:54:16;21.70;84.30
53752;DHT22;41095;53.090;6.692;2023-03-17T10:56:46;20.80;85.10
53752;DHT22;41095;53.090;6.692;2023-03-17T11:01:52;19.00;88.40
53752;DHT22;41095;53.090;6.692;2023-03-17T11:06:59;17.40;88.00
53752;DHT22;41095;53.090;6.692;2023-03-17T11:09:35;17.00;89.90
53752;DHT22;41095;53.090;6.692;2023-03-17T11:12:05;16.90;90.50
53752;DHT22;41095;53.090;6.692;2023-03-17T11:14:31;16.80;90.80
53752;DHT22;41095;53.090;6.692;2023-03-17T11:17:11;16.80;91.50
53752;DHT22;41095;53.090;6.692;2023-03-17T11:22:16;17.10;91.80
53752;DHT22;41095;53.090;6.692;2023-03-17T11:25:13;17.20;91.90
53752;DHT22;41095;53.090;6.692;2023-03-17T11:28:09;17.20;92.00
53752;DHT22;41095;53.090;6.692;2023-03-17T11:36:58;17.10;92.10
53752;DHT22;41095;53.090;6.692;2023-03-17T11:45:04;17.10;93.00
53752;DHT22;41095;53.090;6.692;2023-03-17T11:50:46;16.90;92.50
53752;DHT22;41095;53.090;6.692;2023-03-17T11:53:26;17.00;93.00
53752;DHT22;41095;53.090;6.692;2023-03-17T11:56:00;17.00;92.50
53752;DHT22;41095;53.090;6.692;2023-03-17T11:58:33;17.10;93.40
53752;DHT22;41095;53.090;6.692;2023-03-17T12:01:01;17.00;92.90
53752;DHT22;41095;53.090;6.692;2023-03-17T12:03:43;17.00;92.50
53752;DHT22;41095;53.090;6.692;2023-03-17T12:06:18;17.10;92.00
53752;DHT22;41095;53.090;6.692;2023-03-17T12:08:56;17.00;93.20
53752;DHT22;41095;53.090;6.692;2023-03-17T12:11:29;17.00;91.90
53752;DHT22;41095;53.090;6.692;2023-03-17T12:14:01;17.00;92.70
53752;DHT22;41095;53.090;6.692;2023-03-17T12:16:47;17.00;92.40
53752;DHT22;41095;53.090;6.692;2023-03-17T12:19:39;17.00;92.60
53752;DHT22;41095;53.090;6.692;2023-03-17T12:22:28;17.10;92.60
53752;DHT22;41095;53.090;6.692;2023-03-17T12:25:12;17.10;92.30
53752;DHT22;41095;53.090;6.692;2023-03-17T12:28:00;17.20;94.00
53752;DHT22;41095;53.090;6.692;2023-03-17T12:30:37;17.10;93.10
53752;DHT22;41095;53.090;6.692;2023-03-17T12:33:18;17.10;93.30
53752;DHT22;41095;53.090;6.692;2023-03-17T12:35:45;17.10;93.60
53752;DHT22;41095;53.090;6.692;2023-03-17T12:38:19;17.10;93.30
53752;DHT22;41095;53.090;6.692;2023-03-17T12:40:55;17.20;93.00
53752;DHT22;41095;53.090;6.692;2023-03-17T12:52:24;17.30;93.50
53752;DHT22;41095;53.090;6.692;2023-03-17T12:54:52;17.30;94.50
53752;DHT22;41095;53.090;6.692;2023-03-17T12:57:21;17.30;94.60
53752;DHT22;41095;53.090;6.692;2023-03-17T12:59:59;17.30;94.50
53752;DHT22;41095;53.090;6.692;2023-03-17T13:02:37;17.30;94.70
53752;DHT22;41095;53.090;6.692;2023-03-17T13:05:08;16.90;93.60
53752;DHT22;41095;53.090;6.692;2023-03-17T13:07:45;17.10;94.60
53752;DHT22;41095;53.090;6.692;2023-03-17T13:10:41;17.20;95.30
53752;DHT22;41095;53.090;6.692;2023-03-17T13:15:58;17.30;94.50
53752;DHT22;41095;53.090;6.692;2023-03-17T13:23:45;17.40;95.00
53752;DHT22;41095;53.090;6.692;2023-03-17T13:26:20;17.50;94.80
53752;DHT22;41095;53.090;6.692;2023-03-17T13:28:48;17.40;94.40
53752;DHT22;41095;53.090;6.692;2023-03-17T13:37:00;17.40;94.50
53752;DHT22;41095;53.090;6.692;2023-03-17T13:39:42;17.40;95.00
53752;DHT22;41095;53.090;6.692;2023-03-17T13:50:02;17.20;95.30
53752;DHT22;41095;53.090;6.692;2023-03-17T13:52:45;17.20;94.90
53752;DHT22;41095;53.090;6.692;2023-03-17T14:00:41;17.20;95.50
53752;DHT22;41095;53.090;6.692;2023-03-17T14:03:36;17.30;95.50
53752;DHT22;41095;53.090;6.692;2023-03-17T14:06:06;17.30;94.30
53752;DHT22;41095;53.090;6.692;2023-03-17T14:08:38;17.30;95.40
53752;DHT22;41095;53.090;6.692;2023-03-17T14:11:31;17.30;95.30
53752;DHT22;41095;53.090;6.692;2023-03-17T14:14:29;17.40;95.50
53752;DHT22;41095;53.090;6.692;2023-03-17T14:17:12;17.40;94.50
53752;DHT22;41095;53.090;6.692;2023-03-17T14:19:40;17.40;94.90
53752;DHT22;41095;53.090;6.692;2023-03-17T14:22:24;17.40;94.80
53752;DHT22;41095;53.090;6.692;2023-03-17T14:24:51;17.40;94.30
53752;DHT22;41095;53.090;6.692;2023-03-17T14:27:18;17.30;95.00
53752;DHT22;41095;53.090;6.692;2023-03-17T14:29:43;17.30;95.00
53752;DHT22;41095;53.090;6.692;2023-03-17T14:32:13;17.20;94.70
53752;DHT22;41095;53.090;6.692;2023-03-17T14:34:52;17.20;94.90
53752;DHT22;41095;53.090;6.692;2023-03-17T14:37:19;17.60;94.80
53752;DHT22;41095;53.090;6.692;2023-03-17T14:39:53;17.20;95.40
53752;DHT22;41095;53.090;6.692;2023-03-17T14:42:26;17.10;95.40
53752;DHT22;41095;53.090;6.692;2023-03-17T14:45:19;17.10;95.40
53752;DHT22;41095;53.090;6.692;2023-03-17T14:47:45;17.10;95.40
53752;DHT22;41095;53.090;6.692;2023-03-17T14:50:26;17.10;95.70
53752;DHT22;41095;53.090;6.692;2023-03-17T14:52:52;17.00;94.20
53752;DHT22;41095;53.090;6.692;2023-03-17T14:55:18;17.00;95.40
53752;DHT22;41095;53.090;6.692;2023-03-17T14:57:49;16.90;95.50
53752;DHT22;41095;53.090;6.692;2023-03-17T15:00:35;16.90;95.30
53752;DHT22;41095;53.090;6.692;2023-03-17T15:03:16;16.80;95.10
53752;DHT22;41095;53.090;6.692;2023-03-17T15:05:42;16.80;95.50
53752;DHT22;41095;53.090;6.692;2023-03-17T15:11:02;16.80;95.60
53752;DHT22;41095;53.090;6.692;2023-03-17T15:13:32;16.70;95.50
53752;DHT22;41095;53.090;6.692;2023-03-17T15:16:14;16.80;95.80
53752;DHT22;41095;53.090;6.692;2023-03-17T15:18:40;16.80;95.90
53752;DHT22;41095;53.090;6.692;2023-03-17T15:21:42;16.70;96.10
53752;DHT22;41095;53.090;6.692;2023-03-17T15:24:33;16.60;96.00
53752;DHT22;41095;53.090;6.692;2023-03-17T15:27:09;16.50;95.80
53752;DHT22;41095;53.090;6.692;2023-03-17T15:29:37;16.50;96.20
53752;DHT22;41095;53.090;6.692;2023-03-17T15:32:18;16.50;96.10
53752;DHT22;41095;53.090;6.692;2023-03-17T15:34:48;16.40;95.80
53752;DHT22;41095;53.090;6.692;2023-03-17T15:37:20;16.30;96.30
53752;DHT22;41095;53.090;6.692;2023-03-17T15:39:48;16.30;96.60
53752;DHT22;41095;53.090;6.692;2023-03-17T15:42:15;16.20;96.60
53752;DHT22;41095;53.090;6.692;2023-03-17T15:44:41;16.20;96.70
53752;DHT22;41095;53.090;6.692;2023-03-17T15:47:11;16.20;96.90
53752;DHT22;41095;53.090;6.692;2023-03-17T15:49:38;16.20;96.80
53752;DHT22;41095;53.090;6.692;2023-03-17T15:52:19;16.10;97.00
53752;DHT22;41095;53.090;6.692;2023-03-17T15:54:56;16.20;96.70
53752;DHT22;41095;53.090;6.692;2023-03-17T15:57:23;16.10;97.20
53752;DHT22;41095;53.090;6.692;2023-03-17T15:59:48;16.10;97.10
53752;DHT22;41095;53.090;6.692;2023-03-17T16:04:49;16.00;97.20
53752;DHT22;41095;53.090;6.692;2023-03-17T16:07:15;16.00;97.60
53752;DHT22;41095;53.090;6.692;2023-03-17T16:09:41;16.00;97.90
53752;DHT22;41095;53.090;6.692;2023-03-17T16:12:11;16.10;98.50
53752;DHT22;41095;53.090;6.692;2023-03-17T16:14:36;16.10;98.50
53752;DHT22;41095;53.090;6.692;2023-03-17T16:17:03;16.10;98.60
53752;DHT22;41095;53.090;6.692;2023-03-17T16:19:30;16.00;98.80
53752;DHT22;41095;53.090;6.692;2023-03-17T16:21:56;16.10;98.40
53752;DHT22;41095;53.090;6.692;2023-03-17T16:24:24;16.00;98.20
53752;DHT22;41095;53.090;6.692;2023-03-17T16:26:51;15.90;98.10
53752;DHT22;41095;53.090;6.692;2023-03-17T16:29:19;15.80;98.10
53752;DHT22;41095;53.090;6.692;2023-03-17T16:31:49;15.80;98.10
53752;DHT22;41095;53.090;6.692;2023-03-17T16:34:20;15.70;98.20
53752;DHT22;41095;53.090;6.692;2023-03-17T16:36:47;15.70;98.00
53752;DHT22;41095;53.090;6.692;2023-03-17T16:39:21;15.60;98.20
53752;DHT22;41095;53.090;6.692;2023-03-17T16:41:50;15.60;98.30
53752;DHT22;41095;53.090;6.692;2023-03-17T16:44:19;15.50;98.30
53752;DHT22;41095;53.090;6.692;2023-03-17T16:46:45;15.50;98.70
53752;DHT22;41095;53.090;6.692;2023-03-17T16:49:14;15.50;99.20
53752;DHT22;41095;53.090;6.692;2023-03-17T16:51:40;15.50;98.90
53752;DHT22;41095;53.090;6.692;2023-03-17T16:54:06;15.50;98.70
53752;DHT22;41095;53.090;6.692;2023-03-17T16:56:32;15.30;98.60
53752;DHT22;41095;53.090;6.692;2023-03-17T16:58:57;15.40;99.00
53752;DHT22;41095;53.090;6.692;2023-03-17T17:01:26;15.30;99.40
53752;DHT22;41095;53.090;6.692;2023-03-17T17:03:52;15.30;99.20
53752;DHT22;41095;53.090;6.692;2023-03-17T17:06:19;15.30;98.90
53752;DHT22;41095;53.090;6.692;2023-03-17T17:08:46;15.10;98.80
53752;DHT22;41095;53.090;6.692;2023-03-17T17:11:14;15.10;99.10
53752;DHT22;41095;53.090;6.692;2023-03-17T17:13:41;15.00;99.30
53752;DHT22;41095;53.090;6.692;2023-03-17T17:18:46;14.80;99.60
53752;DHT22;41095;53.090;6.692;2023-03-17T17:21:12;14.80;99.80